createdAt,value
2023-08-03T00:00:05.670Z,984.73
2023-08-03T00:00:35.429Z,984.83
2023-08-03T00:00:51.971Z,984.83
2023-08-03T00:01:24.901Z,984.83
2023-08-03T00:01:42.988Z,984.73
2023-08-03T00:02:11.703Z,984.73
2023-08-03T00:02:35.404Z,985.13
2023-08-03T00:02:59.986Z,985.13
2023-08-03T00:03:32.615Z,985.13
2023-08-03T00:04:03.851Z,984.83
2023-08-03T00:04:36.435Z,984.73
2023-08-03T00:05:07.751Z,984.73
2023-08-03T00:05:35.395Z,984.62
2023-08-03T00:05:56.027Z,984.62
2023-08-03T00:06:27.679Z,984.62
2023-08-03T00:07:01.551Z,985.03
2023-08-03T00:07:31.646Z,985.03
2023-08-03T00:08:13.431Z,984.93
2023-08-03T00:08:35.384Z,984.83
2023-08-03T00:09:07.586Z,984.83
2023-08-03T00:09:35.217Z,984.83
2023-08-03T00:09:55.780Z,984.83
2023-08-03T00:10:28.582Z,984.83
2023-08-03T00:10:59.719Z,984.93
2023-08-03T00:11:32.552Z,984.93
2023-08-03T00:12:03.800Z,984.83
2023-08-03T00:12:45.833Z,984.93
2023-08-03T00:13:08.121Z,984.93
2023-08-03T00:13:35.873Z,984.73
2023-08-03T00:13:57.028Z,984.73
2023-08-03T00:14:27.647Z,984.73
2023-08-03T00:14:59.696Z,984.83
2023-08-03T00:15:32.369Z,984.83
2023-08-03T00:16:03.828Z,984.73
2023-08-03T00:16:35.675Z,985.03
2023-08-03T00:17:08.604Z,985.03
2023-08-03T00:17:35.405Z,984.83
2023-08-03T00:17:55.897Z,984.83
2023-08-03T00:18:28.717Z,984.83
2023-08-03T00:18:59.707Z,985.03
2023-08-03T00:19:31.674Z,985.03
2023-08-03T00:20:03.997Z,985.03
2023-08-03T00:20:35.820Z,984.93
2023-08-03T00:21:07.528Z,984.93
2023-08-03T00:21:35.154Z,984.83
2023-08-03T00:21:56.537Z,984.83
2023-08-03T00:22:27.660Z,984.83
2023-08-03T00:23:00.406Z,984.83
2023-08-03T00:23:32.520Z,984.83
2023-08-03T00:24:04.473Z,985.03
2023-08-03T00:24:35.147Z,985.03
2023-08-03T00:24:51.660Z,985.03
2023-08-03T00:25:24.685Z,985.03
2023-08-03T00:25:41.869Z,984.93
2023-08-03T00:26:11.596Z,984.93
2023-08-03T00:26:37.286Z,984.93
2023-08-03T00:27:00.574Z,984.93
2023-08-03T00:27:32.550Z,984.93
2023-08-03T00:28:04.645Z,985.03
2023-08-03T00:28:35.162Z,985.13
2023-08-03T00:29:08.361Z,985.13
2023-08-03T00:29:35.239Z,985.03
2023-08-03T00:29:55.706Z,985.03
2023-08-03T00:30:27.824Z,985.03
2023-08-03T00:30:59.618Z,984.83
2023-08-03T00:31:31.601Z,984.83
2023-08-03T00:32:03.705Z,985.34
2023-08-03T00:32:35.697Z,985.23
2023-08-03T00:33:07.733Z,985.23
2023-08-03T00:33:35.136Z,985.23
2023-08-03T00:33:56.158Z,985.23
2023-08-03T00:34:28.747Z,985.23
2023-08-03T00:35:01.139Z,985.13
2023-08-03T00:35:33.697Z,985.13
2023-08-03T00:36:03.734Z,985.34
2023-08-03T00:36:40.022Z,985.23
2023-08-03T00:37:07.587Z,985.23
2023-08-03T00:37:37.116Z,985.23
2023-08-03T00:37:55.756Z,985.23
2023-08-03T00:38:27.574Z,985.23
2023-08-03T00:39:01.033Z,985.23
2023-08-03T00:39:31.677Z,985.23
2023-08-03T00:40:05.693Z,985.44
2023-08-03T00:40:36.002Z,985.34
2023-08-03T00:41:10.012Z,985.34
2023-08-03T00:41:35.911Z,985.13
2023-08-03T00:41:55.900Z,985.13
2023-08-03T00:42:28.593Z,985.13
2023-08-03T00:43:00.071Z,985.13
2023-08-03T00:43:31.698Z,985.13
2023-08-03T00:44:04.146Z,985.34
2023-08-03T00:44:35.646Z,985.54
2023-08-03T00:45:08.937Z,985.54
2023-08-03T00:45:35.336Z,985.13
2023-08-03T00:45:57.696Z,985.13
2023-08-03T00:46:27.580Z,985.13
2023-08-03T00:47:01.097Z,985.34
2023-08-03T00:47:31.725Z,985.34
2023-08-03T00:48:04.031Z,985.23
2023-08-03T00:48:35.273Z,985.23
2023-08-03T00:49:07.599Z,985.23
2023-08-03T00:49:35.796Z,985.54
2023-08-03T00:49:55.751Z,985.54
2023-08-03T00:50:29.031Z,985.54
2023-08-03T00:51:00.010Z,985.44
2023-08-03T00:51:32.948Z,985.44
2023-08-03T00:52:03.578Z,985.54
2023-08-03T00:52:37.021Z,985.64
2023-08-03T00:53:07.621Z,985.64
2023-08-03T00:53:36.087Z,985.54
2023-08-03T00:54:11.705Z,985.54
2023-08-03T00:54:35.280Z,985.34
2023-08-03T00:55:00.811Z,985.34
2023-08-03T00:55:31.594Z,985.34
2023-08-03T00:56:03.585Z,985.34
2023-08-03T00:56:35.303Z,985.71
2023-08-03T00:57:07.567Z,985.71
2023-08-03T00:57:35.251Z,985.64
2023-08-03T00:57:55.788Z,985.64
2023-08-03T00:58:32.213Z,985.64
2023-08-03T00:59:00.323Z,985.64
2023-08-03T00:59:31.555Z,985.64
2023-08-03T01:00:05.605Z,985.64
2023-08-03T01:00:35.354Z,985.64
2023-08-03T01:01:07.605Z,985.64
2023-08-03T01:01:36.787Z,985.44
2023-08-03T01:01:57.357Z,985.44
2023-08-03T01:02:27.670Z,985.44
2023-08-03T01:03:16.806Z,985.54
2023-08-03T01:03:35.318Z,985.54
2023-08-03T01:04:03.633Z,985.54
2023-08-03T01:04:35.547Z,985.54
2023-08-03T01:05:08.010Z,985.54
2023-08-03T01:05:35.402Z,985.54
2023-08-03T01:05:55.782Z,985.54
2023-08-03T01:06:28.794Z,985.54
2023-08-03T01:06:59.910Z,985.71
2023-08-03T01:07:32.489Z,985.71
2023-08-03T01:08:03.933Z,985.64
2023-08-03T01:08:35.889Z,985.64
2023-08-03T01:09:07.584Z,985.64
2023-08-03T01:09:35.845Z,985.71
2023-08-03T01:09:56.650Z,985.71
2023-08-03T01:10:27.775Z,985.71
2023-08-03T01:11:00.530Z,985.54
2023-08-03T01:11:31.537Z,985.54
2023-08-03T01:12:04.426Z,985.71
2023-08-03T01:12:35.675Z,985.81
2023-08-03T01:13:08.549Z,985.81
2023-08-03T01:13:35.823Z,985.71
2023-08-03T01:13:55.977Z,985.71
2023-08-03T01:14:27.605Z,985.71
2023-08-03T01:14:59.769Z,985.81
2023-08-03T01:15:31.839Z,985.81
2023-08-03T01:16:03.847Z,985.71
2023-08-03T01:16:35.287Z,985.71
2023-08-03T01:17:07.601Z,985.71
2023-08-03T01:17:35.298Z,985.81
2023-08-03T01:17:55.860Z,985.81
2023-08-03T01:18:28.291Z,985.81
2023-08-03T01:18:59.733Z,985.71
2023-08-03T01:19:32.416Z,985.71
2023-08-03T01:20:04.073Z,985.64
2023-08-03T01:20:36.106Z,985.81
2023-08-03T01:21:07.546Z,985.81
2023-08-03T01:21:35.174Z,985.71
2023-08-03T01:21:55.622Z,985.71
2023-08-03T01:22:27.554Z,985.71
2023-08-03T01:23:00.446Z,985.91
2023-08-03T01:23:31.521Z,985.91
2023-08-03T01:24:04.363Z,985.71
2023-08-03T01:24:35.137Z,985.81
2023-08-03T01:25:08.646Z,985.81
2023-08-03T01:25:35.186Z,985.81
2023-08-03T01:25:56.067Z,985.81
2023-08-03T01:26:27.541Z,985.81
2023-08-03T01:26:59.568Z,985.81
2023-08-03T01:27:31.461Z,985.81
2023-08-03T01:28:03.617Z,985.81
2023-08-03T01:28:35.291Z,985.71
2023-08-03T01:29:07.496Z,985.71
2023-08-03T01:29:35.759Z,985.91
2023-08-03T01:29:55.728Z,985.91
2023-08-03T01:30:28.667Z,985.91
2023-08-03T01:30:59.630Z,986.01
2023-08-03T01:31:32.321Z,986.01
2023-08-03T01:32:03.751Z,985.81
2023-08-03T01:32:36.198Z,986.01
2023-08-03T01:33:07.612Z,986.01
2023-08-03T01:33:35.421Z,985.91
2023-08-03T01:33:55.746Z,985.91
2023-08-03T01:34:27.466Z,985.91
2023-08-03T01:35:00.606Z,986.01
2023-08-03T01:35:31.495Z,986.01
2023-08-03T01:36:04.320Z,986.11
2023-08-03T01:36:35.668Z,985.91
2023-08-03T01:37:08.300Z,985.91
2023-08-03T01:37:35.711Z,985.91
2023-08-03T01:37:55.789Z,985.91
2023-08-03T01:38:27.532Z,985.91
2023-08-03T01:38:59.638Z,986.11
2023-08-03T01:39:31.492Z,986.11
2023-08-03T01:40:03.886Z,986.01
2023-08-03T01:40:35.559Z,986.01
2023-08-03T01:41:07.678Z,986.01
2023-08-03T01:41:35.187Z,985.91
2023-08-03T01:41:56.145Z,985.91
2023-08-03T01:42:28.448Z,985.91
2023-08-03T01:42:59.748Z,985.91
2023-08-03T01:43:32.400Z,985.91
2023-08-03T01:44:04.191Z,986.11
2023-08-03T01:44:36.584Z,986.32
2023-08-03T01:45:08.181Z,986.32
2023-08-03T01:45:35.396Z,986.22
2023-08-03T01:45:55.887Z,986.22
2023-08-03T01:46:27.536Z,986.22
2023-08-03T01:47:00.452Z,985.91
2023-08-03T01:47:31.526Z,985.91
2023-08-03T01:48:04.399Z,986.01
2023-08-03T01:48:35.231Z,986.01
2023-08-03T01:49:08.283Z,986.01
2023-08-03T01:49:35.254Z,986.42
2023-08-03T01:49:55.699Z,986.42
2023-08-03T01:50:27.762Z,986.42
2023-08-03T01:50:59.678Z,986.42
2023-08-03T01:51:32.009Z,986.42
2023-08-03T01:52:03.609Z,986.32
2023-08-03T01:52:35.208Z,986.01
2023-08-03T01:53:07.526Z,986.01
2023-08-03T01:53:35.198Z,986.32
2023-08-03T01:53:55.674Z,986.32
2023-08-03T01:54:28.307Z,986.32
2023-08-03T01:54:59.827Z,986.32
2023-08-03T01:55:32.720Z,986.32
2023-08-03T01:56:03.609Z,986.22
2023-08-03T01:56:35.588Z,986.42
2023-08-03T01:57:07.482Z,986.42
2023-08-03T01:57:35.200Z,986.32
2023-08-03T01:57:56.468Z,986.32
2023-08-03T01:58:27.546Z,986.32
2023-08-03T01:59:00.292Z,986.32
2023-08-03T01:59:31.982Z,986.32
2023-08-03T02:00:05.202Z,986.32
2023-08-03T02:00:35.779Z,986.42
2023-08-03T02:01:07.731Z,986.42
2023-08-03T02:01:35.226Z,986.42
2023-08-03T02:01:55.768Z,986.42
2023-08-03T02:02:28.614Z,986.42
2023-08-03T02:02:59.685Z,986.42
2023-08-03T02:03:32.377Z,986.42
2023-08-03T02:04:03.641Z,986.32
2023-08-03T02:04:36.060Z,986.42
2023-08-03T02:05:08.182Z,986.42
2023-08-03T02:05:35.221Z,986.52
2023-08-03T02:05:56.018Z,986.52
2023-08-03T02:06:27.511Z,986.52
2023-08-03T02:07:00.654Z,986.52
2023-08-03T02:07:31.687Z,986.52
2023-08-03T02:08:04.779Z,986.22
2023-08-03T02:08:35.245Z,986.52
2023-08-03T02:09:08.251Z,986.52
2023-08-03T02:09:35.123Z,986.42
2023-08-03T02:09:55.747Z,986.42
2023-08-03T02:10:27.700Z,986.42
2023-08-03T02:10:59.596Z,986.42
2023-08-03T02:11:31.498Z,986.42
2023-08-03T02:12:03.591Z,986.32
2023-08-03T02:12:35.263Z,986.42
2023-08-03T02:13:07.521Z,986.42
2023-08-03T02:13:35.213Z,986.32
2023-08-03T02:13:55.811Z,986.32
2023-08-03T02:14:28.283Z,986.32
2023-08-03T02:14:59.647Z,986.32
2023-08-03T02:15:31.756Z,986.32
2023-08-03T02:16:18.853Z,986.42
2023-08-03T02:16:35.292Z,986.52
2023-08-03T02:17:07.488Z,986.52
2023-08-03T02:17:35.243Z,986.62
2023-08-03T02:17:56.817Z,986.62
2023-08-03T02:18:27.525Z,986.62
2023-08-03T02:19:00.285Z,986.52
2023-08-03T02:19:31.444Z,986.52
2023-08-03T02:20:04.079Z,986.62
2023-08-03T02:20:35.278Z,986.62
2023-08-03T02:21:07.523Z,986.62
2023-08-03T02:21:35.349Z,986.52
2023-08-03T02:21:55.688Z,986.52
2023-08-03T02:22:28.274Z,986.52
2023-08-03T02:22:59.796Z,986.62
2023-08-03T02:23:32.397Z,986.62
2023-08-03T02:24:03.615Z,986.62
2023-08-03T02:24:36.101Z,986.62
2023-08-03T02:25:07.598Z,986.62
2023-08-03T02:25:35.326Z,986.62
2023-08-03T02:25:55.910Z,986.62
2023-08-03T02:26:27.533Z,986.62
2023-08-03T02:27:03.294Z,986.52
2023-08-03T02:27:31.494Z,986.52
2023-08-03T02:28:04.500Z,986.72
2023-08-03T02:28:35.163Z,986.72
2023-08-03T02:29:08.240Z,986.72
2023-08-03T02:29:35.810Z,986.62
2023-08-03T02:29:55.597Z,986.62
2023-08-03T02:30:27.741Z,986.62
2023-08-03T02:30:59.560Z,986.72
2023-08-03T02:31:31.632Z,986.72
2023-08-03T02:32:03.889Z,986.62
2023-08-03T02:32:35.225Z,986.83
2023-08-03T02:33:07.513Z,986.83
2023-08-03T02:33:35.389Z,986.62
2023-08-03T02:33:55.959Z,986.62
2023-08-03T02:34:28.307Z,986.62
2023-08-03T02:34:59.732Z,986.62
2023-08-03T02:35:32.620Z,986.62
2023-08-03T02:36:03.744Z,986.72
2023-08-03T02:36:35.983Z,986.52
2023-08-03T02:37:07.503Z,986.52
2023-08-03T02:37:35.768Z,986.62
2023-08-03T02:37:55.743Z,986.62
2023-08-03T02:38:27.584Z,986.62
2023-08-03T02:39:00.421Z,986.62
2023-08-03T02:39:31.416Z,986.62
2023-08-03T02:40:04.685Z,986.62
2023-08-03T02:40:35.377Z,986.83
2023-08-03T02:41:08.294Z,986.83
2023-08-03T02:41:35.611Z,986.72
2023-08-03T02:41:55.617Z,986.72
2023-08-03T02:42:27.534Z,986.72
2023-08-03T02:42:59.573Z,986.62
2023-08-03T02:43:31.485Z,986.62
2023-08-03T02:44:04.247Z,986.72
2023-08-03T02:44:35.174Z,986.72
2023-08-03T02:45:07.831Z,986.72
2023-08-03T02:45:35.290Z,986.83
2023-08-03T02:45:55.850Z,986.83
2023-08-03T02:46:28.366Z,986.83
2023-08-03T02:46:59.639Z,986.83
2023-08-03T02:47:31.494Z,986.83
2023-08-03T02:48:04.065Z,986.72
2023-08-03T02:48:35.188Z,986.62
2023-08-03T02:49:07.498Z,986.62
2023-08-03T02:49:35.210Z,986.93
2023-08-03T02:49:56.529Z,986.93
2023-08-03T02:50:27.630Z,986.93
2023-08-03T02:51:00.401Z,986.52
2023-08-03T02:51:32.083Z,986.52
2023-08-03T02:52:04.549Z,986.72
2023-08-03T02:52:35.345Z,986.83
2023-08-03T02:53:08.257Z,986.83
2023-08-03T02:53:35.602Z,986.72
2023-08-03T02:53:56.073Z,986.72
2023-08-03T02:54:27.556Z,986.72
2023-08-03T02:54:59.785Z,986.83
2023-08-03T02:55:31.618Z,986.83
2023-08-03T02:56:03.546Z,986.72
2023-08-03T02:56:35.862Z,986.93
2023-08-03T02:57:07.422Z,986.93
2023-08-03T02:57:35.221Z,986.93
2023-08-03T02:57:55.938Z,986.93
2023-08-03T02:58:28.305Z,986.93
2023-08-03T02:58:59.672Z,986.93
2023-08-03T02:59:32.307Z,986.93
2023-08-03T03:00:05.131Z,986.72
2023-08-03T03:00:36.393Z,986.83
2023-08-03T03:01:07.431Z,986.83
2023-08-03T03:01:35.240Z,986.83
2023-08-03T03:01:55.609Z,986.83
2023-08-03T03:02:27.609Z,986.83
2023-08-03T03:03:01.255Z,986.72
2023-08-03T03:03:31.591Z,986.72
2023-08-03T03:04:04.482Z,986.72
2023-08-03T03:04:35.279Z,986.62
2023-08-03T03:05:08.570Z,986.62
2023-08-03T03:05:35.202Z,986.93
2023-08-03T03:05:55.892Z,986.93
2023-08-03T03:06:27.497Z,986.93
2023-08-03T03:06:59.674Z,986.83
2023-08-03T03:07:31.461Z,986.83
2023-08-03T03:08:03.592Z,986.62
2023-08-03T03:08:35.200Z,987.03
2023-08-03T03:09:07.475Z,987.03
2023-08-03T03:09:35.813Z,986.93
2023-08-03T03:09:55.587Z,986.93
2023-08-03T03:10:28.485Z,986.93
2023-08-03T03:10:59.648Z,986.72
2023-08-03T03:11:32.291Z,986.72
2023-08-03T03:12:03.464Z,986.83
2023-08-03T03:12:36.015Z,987.03
2023-08-03T03:13:07.458Z,987.03
2023-08-03T03:13:35.440Z,986.72
2023-08-03T03:13:55.696Z,986.72
2023-08-03T03:14:27.455Z,986.72
2023-08-03T03:15:00.656Z,987.23
2023-08-03T03:15:31.490Z,987.23
2023-08-03T03:16:04.604Z,986.83
2023-08-03T03:16:35.229Z,986.93
2023-08-03T03:17:08.220Z,986.93
2023-08-03T03:17:35.330Z,986.72
2023-08-03T03:17:55.712Z,986.72
2023-08-03T03:18:27.889Z,986.72
2023-08-03T03:18:59.522Z,986.72
2023-08-03T03:19:31.488Z,986.72
2023-08-03T03:20:03.988Z,987.03
2023-08-03T03:20:35.255Z,987.03
2023-08-03T03:21:07.442Z,987.03
2023-08-03T03:21:35.235Z,986.83
2023-08-03T03:21:55.610Z,986.83
2023-08-03T03:22:28.318Z,986.83
2023-08-03T03:22:59.502Z,986.83
2023-08-03T03:23:32.243Z,986.83
2023-08-03T03:24:03.588Z,986.72
2023-08-03T03:24:37.625Z,986.83
2023-08-03T03:25:07.664Z,986.83
2023-08-03T03:25:35.732Z,986.83
2023-08-03T03:25:55.713Z,986.83
2023-08-03T03:26:27.574Z,986.83
2023-08-03T03:27:00.410Z,987.13
2023-08-03T03:27:31.417Z,987.13
2023-08-03T03:28:04.253Z,987.03
2023-08-03T03:28:35.686Z,987.03
2023-08-03T03:29:08.650Z,987.03
2023-08-03T03:29:35.185Z,987.13
2023-08-03T03:29:55.555Z,987.13
2023-08-03T03:30:27.727Z,987.13
2023-08-03T03:30:59.457Z,987.03
2023-08-03T03:31:32.058Z,987.03
2023-08-03T03:32:04.681Z,986.93
2023-08-03T03:32:35.345Z,986.83
2023-08-03T03:33:07.530Z,986.83
2023-08-03T03:33:35.205Z,987.13
2023-08-03T03:33:56.360Z,987.13
2023-08-03T03:34:36.019Z,986.93
2023-08-03T03:34:59.650Z,986.93
2023-08-03T03:35:31.676Z,986.93
2023-08-03T03:36:04.368Z,986.83
2023-08-03T03:36:35.672Z,987.23
2023-08-03T03:37:08.186Z,987.23
2023-08-03T03:37:35.179Z,987.13
2023-08-03T03:37:55.587Z,987.13
2023-08-03T03:38:28.389Z,987.13
2023-08-03T03:38:59.564Z,987.23
2023-08-03T03:39:32.531Z,987.23
2023-08-03T03:40:19.641Z,987.03
2023-08-03T03:40:51.530Z,987.13
2023-08-03T03:41:23.478Z,987.13
2023-08-03T03:41:41.597Z,987.03
2023-08-03T03:42:11.561Z,987.03
2023-08-03T03:42:35.567Z,987.13
2023-08-03T03:42:59.385Z,987.13
2023-08-03T03:43:31.602Z,987.13
2023-08-03T03:44:04.819Z,987.03
2023-08-03T03:44:35.291Z,987.23
2023-08-03T03:45:08.636Z,987.23
2023-08-03T03:45:35.885Z,987.13
2023-08-03T03:45:55.764Z,987.13
2023-08-03T03:46:28.257Z,987.13
2023-08-03T03:46:59.438Z,987.23
2023-08-03T03:47:32.866Z,987.23
2023-08-03T03:48:04.222Z,987.23
2023-08-03T03:48:35.377Z,987.33
2023-08-03T03:49:07.494Z,987.33
2023-08-03T03:49:35.281Z,987.03
2023-08-03T03:49:56.401Z,987.03
2023-08-03T03:50:27.680Z,987.03
2023-08-03T03:51:00.499Z,987.13
2023-08-03T03:51:31.450Z,987.13
2023-08-03T03:52:04.323Z,987.13
2023-08-03T03:52:35.362Z,987.13
2023-08-03T03:53:08.311Z,987.13
2023-08-03T03:53:35.270Z,987.23
2023-08-03T03:53:55.691Z,987.23
2023-08-03T03:54:27.509Z,987.23
2023-08-03T03:54:59.497Z,987.13
2023-08-03T03:55:32.171Z,987.13
2023-08-03T03:56:03.541Z,987.13
2023-08-03T03:56:35.364Z,987.23
2023-08-03T03:57:07.486Z,987.23
2023-08-03T03:57:35.849Z,987.13
2023-08-03T03:57:55.677Z,987.13
2023-08-03T03:58:28.648Z,987.13
2023-08-03T03:58:59.726Z,987.13
2023-08-03T03:59:32.343Z,987.13
2023-08-03T04:00:04.571Z,987.13
2023-08-03T04:00:37.663Z,987.23
2023-08-03T04:01:07.751Z,987.23
2023-08-03T04:01:35.190Z,987.23
2023-08-03T04:01:55.772Z,987.23
2023-08-03T04:02:27.853Z,987.23
2023-08-03T04:03:00.735Z,987.33
2023-08-03T04:03:31.832Z,987.33
2023-08-03T04:04:03.691Z,987.13
2023-08-03T04:04:35.466Z,987.33
2023-08-03T04:05:07.649Z,987.33
2023-08-03T04:05:35.334Z,987.13
2023-08-03T04:05:55.941Z,987.13
2023-08-03T04:06:28.682Z,987.13
2023-08-03T04:06:59.723Z,987.13
2023-08-03T04:07:32.408Z,987.13
2023-08-03T04:08:03.657Z,987.23
2023-08-03T04:08:36.313Z,987.23
2023-08-03T04:09:07.678Z,987.23
2023-08-03T04:09:35.636Z,987.44
2023-08-03T04:09:55.822Z,987.44
2023-08-03T04:10:27.754Z,987.44
2023-08-03T04:11:00.505Z,987.23
2023-08-03T04:11:31.615Z,987.23
2023-08-03T04:12:04.525Z,987.23
2023-08-03T04:12:35.470Z,987.33
2023-08-03T04:13:08.437Z,987.33
2023-08-03T04:13:35.854Z,987.33
2023-08-03T04:13:57.055Z,987.33
2023-08-03T04:14:27.567Z,987.33
2023-08-03T04:14:59.753Z,987.54
2023-08-03T04:15:32.720Z,987.54
2023-08-03T04:16:04.256Z,987.33
2023-08-03T04:16:35.957Z,987.44
2023-08-03T04:17:07.755Z,987.44
2023-08-03T04:17:35.416Z,987.54
2023-08-03T04:17:55.804Z,987.54
2023-08-03T04:18:28.699Z,987.54
2023-08-03T04:18:59.574Z,987.54
2023-08-03T04:19:32.440Z,987.54
2023-08-03T04:20:04.202Z,987.44
2023-08-03T04:20:35.419Z,987.33
2023-08-03T04:21:07.533Z,987.33
2023-08-03T04:21:35.403Z,987.33
2023-08-03T04:21:56.468Z,987.33
2023-08-03T04:22:27.629Z,987.33
2023-08-03T04:23:00.517Z,987.44
2023-08-03T04:23:31.736Z,987.44
2023-08-03T04:24:03.786Z,987.33
2023-08-03T04:24:35.424Z,987.44
2023-08-03T04:25:08.285Z,987.44
2023-08-03T04:25:35.423Z,987.54
2023-08-03T04:25:56.246Z,987.54
2023-08-03T04:26:28.366Z,987.54
2023-08-03T04:26:59.694Z,987.33
2023-08-03T04:27:32.387Z,987.33
2023-08-03T04:28:03.698Z,987.33
2023-08-03T04:28:35.374Z,987.44
2023-08-03T04:29:07.675Z,987.44
2023-08-03T04:29:35.570Z,987.44
2023-08-03T04:29:56.561Z,987.44
2023-08-03T04:30:27.911Z,987.44
2023-08-03T04:31:00.706Z,987.54
2023-08-03T04:31:31.864Z,987.54
2023-08-03T04:32:03.695Z,987.54
2023-08-03T04:32:35.517Z,987.44
2023-08-03T04:33:07.605Z,987.44
2023-08-03T04:33:35.665Z,987.44
2023-08-03T04:33:56.959Z,987.44
2023-08-03T04:34:28.378Z,987.44
2023-08-03T04:35:00.307Z,987.33
2023-08-03T04:35:31.648Z,987.33
2023-08-03T04:36:03.719Z,987.64
2023-08-03T04:36:35.412Z,987.44
2023-08-03T04:37:07.536Z,987.44
2023-08-03T04:37:35.344Z,987.33
2023-08-03T04:37:56.644Z,987.33
2023-08-03T04:38:27.596Z,987.33
2023-08-03T04:39:00.038Z,987.44
2023-08-03T04:39:31.715Z,987.44
2023-08-03T04:40:03.988Z,987.44
2023-08-03T04:40:35.433Z,987.23
2023-08-03T04:41:07.623Z,987.23
2023-08-03T04:41:35.329Z,987.33
2023-08-03T04:41:55.809Z,987.33
2023-08-03T04:42:28.340Z,987.33
2023-08-03T04:42:59.626Z,987.44
2023-08-03T04:43:31.751Z,987.44
2023-08-03T04:44:04.805Z,987.54
2023-08-03T04:44:35.964Z,987.44
2023-08-03T04:45:07.843Z,987.44
2023-08-03T04:45:35.393Z,987.44
2023-08-03T04:45:56.762Z,987.44
2023-08-03T04:46:27.775Z,987.44
2023-08-03T04:47:01.481Z,987.33
2023-08-03T04:47:31.742Z,987.33
2023-08-03T04:48:05.536Z,987.54
2023-08-03T04:48:35.601Z,987.54
2023-08-03T04:49:08.332Z,987.54
2023-08-03T04:49:35.683Z,987.54
2023-08-03T04:49:56.519Z,987.54
2023-08-03T04:50:27.808Z,987.54
2023-08-03T04:50:59.611Z,987.44
2023-08-03T04:51:32.026Z,987.44
2023-08-03T04:52:03.880Z,987.44
2023-08-03T04:52:35.497Z,987.74
2023-08-03T04:53:07.513Z,987.74
2023-08-03T04:53:35.385Z,987.74
2023-08-03T04:53:55.862Z,987.74
2023-08-03T04:54:28.401Z,987.74
2023-08-03T04:54:59.597Z,987.64
2023-08-03T04:55:33.339Z,987.64
2023-08-03T04:56:03.870Z,987.44
2023-08-03T04:56:35.357Z,987.64
2023-08-03T04:57:07.613Z,987.64
2023-08-03T04:57:35.482Z,987.81
2023-08-03T04:57:56.502Z,987.81
2023-08-03T04:58:27.609Z,987.81
2023-08-03T04:59:00.796Z,987.64
2023-08-03T04:59:32.098Z,987.64
2023-08-03T05:00:05.502Z,987.64
2023-08-03T05:00:35.673Z,987.64
2023-08-03T05:01:07.685Z,987.64
2023-08-03T05:01:36.083Z,987.64
2023-08-03T05:01:55.869Z,987.64
2023-08-03T05:02:28.372Z,987.64
2023-08-03T05:02:59.685Z,987.33
2023-08-03T05:03:32.401Z,987.33
2023-08-03T05:04:03.931Z,987.74
2023-08-03T05:04:35.821Z,987.74
2023-08-03T05:05:07.708Z,987.74
2023-08-03T05:05:35.343Z,987.74
2023-08-03T05:05:56.873Z,987.74
2023-08-03T05:06:27.720Z,987.74
2023-08-03T05:06:59.632Z,987.64
2023-08-03T05:07:31.619Z,987.64
2023-08-03T05:08:03.864Z,987.81
2023-08-03T05:08:35.287Z,987.81
2023-08-03T05:09:07.596Z,987.81
2023-08-03T05:09:35.451Z,987.74
2023-08-03T05:09:55.820Z,987.74
2023-08-03T05:10:28.610Z,987.74
2023-08-03T05:10:59.608Z,987.81
2023-08-03T05:11:31.565Z,987.81
2023-08-03T05:12:03.790Z,987.64
2023-08-03T05:12:35.382Z,987.81
2023-08-03T05:13:07.538Z,987.81
2023-08-03T05:13:35.768Z,987.81
2023-08-03T05:13:56.446Z,987.81
2023-08-03T05:14:27.541Z,987.81
2023-08-03T05:14:59.626Z,987.81
2023-08-03T05:15:31.726Z,987.81
2023-08-03T05:16:03.828Z,988.01
2023-08-03T05:16:35.478Z,987.81
2023-08-03T05:17:07.591Z,987.81
2023-08-03T05:17:35.447Z,987.74
2023-08-03T05:17:55.839Z,987.74
2023-08-03T05:18:29.203Z,987.74
2023-08-03T05:18:59.487Z,987.91
2023-08-03T05:19:32.374Z,987.91
2023-08-03T05:20:07.931Z,987.91
2023-08-03T05:20:35.390Z,987.81
2023-08-03T05:21:08.769Z,987.81
2023-08-03T05:21:36.037Z,987.91
2023-08-03T05:21:56.658Z,987.91
2023-08-03T05:22:27.573Z,987.91
2023-08-03T05:23:00.736Z,987.81
2023-08-03T05:23:31.658Z,987.81
2023-08-03T05:24:04.570Z,988.11
2023-08-03T05:24:35.724Z,988.21
2023-08-03T05:25:07.853Z,988.21
2023-08-03T05:25:36.033Z,987.91
2023-08-03T05:25:56.230Z,987.91
2023-08-03T05:26:28.307Z,987.91
2023-08-03T05:27:00.412Z,988.01
2023-08-03T05:27:31.724Z,988.01
2023-08-03T05:28:03.655Z,987.91
2023-08-03T05:28:36.053Z,988.11
2023-08-03T05:29:07.503Z,988.11
2023-08-03T05:29:35.380Z,988.21
2023-08-03T05:29:56.475Z,988.21
2023-08-03T05:30:27.885Z,988.21
2023-08-03T05:30:59.663Z,988.11
2023-08-03T05:31:31.747Z,988.11
2023-08-03T05:32:03.667Z,987.91
2023-08-03T05:32:35.780Z,987.91
2023-08-03T05:33:07.641Z,987.91
2023-08-03T05:33:35.348Z,988.01
2023-08-03T05:33:56.395Z,988.01
2023-08-03T05:34:28.388Z,988.01
2023-08-03T05:34:59.625Z,988.01
2023-08-03T05:35:33.529Z,988.01
2023-08-03T05:36:03.736Z,988.11
2023-08-03T05:36:36.192Z,988.01
2023-08-03T05:37:07.848Z,988.01
2023-08-03T05:37:36.034Z,988.11
2023-08-03T05:37:57.457Z,988.11
2023-08-03T05:38:27.561Z,988.11
2023-08-03T05:38:59.645Z,988.01
2023-08-03T05:39:31.786Z,988.01
2023-08-03T05:40:04.697Z,988.11
2023-08-03T05:40:35.312Z,988.01
2023-08-03T05:41:08.391Z,988.01
2023-08-03T05:41:35.452Z,988.11
2023-08-03T05:41:55.708Z,988.11
2023-08-03T05:42:28.378Z,988.11
2023-08-03T05:42:59.612Z,988.21
2023-08-03T05:43:33.521Z,988.21
2023-08-03T05:44:04.526Z,988.11
2023-08-03T05:44:36.011Z,988.11
2023-08-03T05:45:07.827Z,988.11
2023-08-03T05:45:35.381Z,988.32
2023-08-03T05:45:56.813Z,988.32
2023-08-03T05:46:27.575Z,988.32
2023-08-03T05:46:59.609Z,988.21
2023-08-03T05:47:31.854Z,988.21
2023-08-03T05:48:04.349Z,988.42
2023-08-03T05:48:35.337Z,988.21
2023-08-03T05:49:07.613Z,988.21
2023-08-03T05:49:35.380Z,988.32
2023-08-03T05:49:55.927Z,988.32
2023-08-03T05:50:28.697Z,988.32
2023-08-03T05:50:59.784Z,988.11
2023-08-03T05:51:32.310Z,988.11
2023-08-03T05:52:03.746Z,988.42
2023-08-03T05:52:36.253Z,988.32
2023-08-03T05:53:07.543Z,988.32
2023-08-03T05:53:35.406Z,988.42
2023-08-03T05:53:56.728Z,988.42
2023-08-03T05:54:27.637Z,988.42
2023-08-03T05:55:00.753Z,988.32
2023-08-03T05:55:35.960Z,988.42
2023-08-03T05:56:12.330Z,988.42
2023-08-03T05:56:35.409Z,988.11
2023-08-03T05:57:07.525Z,988.11
2023-08-03T05:57:36.594Z,988.32
2023-08-03T05:58:11.663Z,988.32
2023-08-03T05:58:35.558Z,988.42
2023-08-03T05:59:00.592Z,988.42
2023-08-03T05:59:31.909Z,988.42
2023-08-03T06:00:06.953Z,988.21
2023-08-03T06:00:35.765Z,988.11
2023-08-03T06:01:07.526Z,988.11
2023-08-03T06:01:35.464Z,988.32
2023-08-03T06:01:56.137Z,988.32
2023-08-03T06:02:28.675Z,988.32
2023-08-03T06:03:00.349Z,988.32
2023-08-03T06:03:31.657Z,988.32
2023-08-03T06:04:03.896Z,988.42
2023-08-03T06:04:35.362Z,988.42
2023-08-03T06:05:08.093Z,988.42
2023-08-03T06:05:35.676Z,988.52
2023-08-03T06:05:56.797Z,988.52
2023-08-03T06:06:27.758Z,988.52
2023-08-03T06:06:59.597Z,988.62
2023-08-03T06:07:31.498Z,988.62
2023-08-03T06:08:04.654Z,988.21
2023-08-03T06:08:36.006Z,988.42
2023-08-03T06:09:07.489Z,988.42
2023-08-03T06:09:35.984Z,988.42
2023-08-03T06:09:55.788Z,988.42
2023-08-03T06:10:28.550Z,988.42
2023-08-03T06:10:59.459Z,988.52
2023-08-03T06:11:31.813Z,988.52
2023-08-03T06:12:04.337Z,988.32
2023-08-03T06:12:35.407Z,988.52
2023-08-03T06:13:07.504Z,988.52